Wetterdaten: Woche 10.03.25 - 16.03.25 (KW11)
Datum Zeit Temp. I. Temp. A. Feuchte I. Feuchte A. Luftdruck Regen Wind Richtung Sonnenschein Solar Taupunkt Windchill Windböen
10.03.2025 00:00 22,3 °C 0,5 °C 46 % 92 % 1002,8 hPa 0,0 l/m² 0,0 km/h (0 Bft) W-SW 0,00 h 0 W/m² -0,7 °C 0,5 °C 0,0 km/h (0 Bft)
10.03.2025 01:00 22,2 °C -0,4 °C 46 % 92 % 1002,6 hPa 0,0 l/m² 0,0 km/h (0 Bft) W-SW 0,00 h 0 W/m² -1,5 °C -0,4 °C 0,0 km/h (0 Bft)
10.03.2025 02:00 22,2 °C -0,4 °C 46 % 93 % 1002,1 hPa 0,0 l/m² 0,0 km/h (0 Bft) W-SW 0,00 h 0 W/m² -1,4 °C -0,4 °C 0,0 km/h (0 Bft)
10.03.2025 03:00 22,3 °C -0,7 °C 46 % 93 % 1001,8 hPa 0,0 l/m² 0,0 km/h (0 Bft) W-SW 0,00 h 0 W/m² -1,7 °C -0,7 °C 0,0 km/h (0 Bft)
10.03.2025 04:00 22,3 °C -1,2 °C 46 % 93 % 1001,7 hPa 0,0 l/m² 0,0 km/h (0 Bft) W-SW 0,00 h 0 W/m² -2,2 °C -1,2 °C 0,0 km/h (0 Bft)
10.03.2025 05:00 22,4 °C -1,6 °C 46 % 93 % 1001,6 hPa 0,0 l/m² 0,0 km/h (0 Bft) W-SW 0,00 h 0 W/m² -2,5 °C -1,6 °C 0,0 km/h (0 Bft)
10.03.2025 06:00 22,4 °C -1,8 °C 46 % 94 % 1001,3 hPa 0,0 l/m² 0,0 km/h (0 Bft) W-SW 0,00 h 9 W/m² -2,7 °C -1,8 °C 0,0 km/h (0 Bft)
10.03.2025 07:00 22,3 °C -1,6 °C 42 % 94 % 1001,3 hPa 0,0 l/m² 0,0 km/h (0 Bft) W-SW 0,45 h 55 W/m² -2,4 °C -1,6 °C 0,0 km/h (0 Bft)
10.03.2025 08:00 22,4 °C 0,8 °C 42 % 94 % 1001,3 hPa 0,0 l/m² 0,0 km/h (0 Bft) W-SW 1,00 h 191 W/m² -0,0 °C 0,8 °C 0,0 km/h (0 Bft)
10.03.2025 09:00 22,7 °C 6,5 °C 43 % 88 % 1001,1 hPa 0,0 l/m² 0,0 km/h (0 Bft) W-SW 1,02 h 346 W/m² 4,7 °C 6,5 °C 0,0 km/h (0 Bft)
10.03.2025 10:00 22,8 °C 11,0 °C 43 % 77 % 1001,1 hPa 0,0 l/m² 0,0 km/h (0 Bft) W 1,00 h 458 W/m² 7,1 °C 11,0 °C 0,0 km/h (0 Bft)
10.03.2025 11:00 23,0 °C 14,1 °C 43 % 65 % 1000,9 hPa 0,0 l/m² 0,0 km/h (0 Bft) NW 1,00 h 536 W/m² 7,5 °C 14,1 °C 0,0 km/h (0 Bft)
10.03.2025 12:00 23,3 °C 15,8 °C 43 % 56 % 1000,7 hPa 0,0 l/m² 0,0 km/h (0 Bft) NW 0,98 h 552 W/m² 7,0 °C 15,8 °C 0,0 km/h (0 Bft)
10.03.2025 13:00 23,3 °C 16,6 °C 43 % 50 % 1000,2 hPa 0,0 l/m² 2,4 km/h (1 Bft) W 1,02 h 530 W/m² 6,1 °C 16,5 °C 4,5 km/h (1 Bft)
10.03.2025 14:00 23,1 °C 17,0 °C 43 % 45 % 999,7 hPa 0,0 l/m² 6,8 km/h (2 Bft) N-NW 1,00 h 395 W/m² 4,9 °C 16,5 °C 10,9 km/h (2 Bft)
10.03.2025 15:00 23,0 °C 16,4 °C 44 % 42 % 999,6 hPa 0,0 l/m² 5,4 km/h (2 Bft) NW 1,00 h 220 W/m² 3,5 °C 16,0 °C 8,9 km/h (2 Bft)
10.03.2025 16:00 22,8 °C 16,3 °C 44 % 44 % 999,7 hPa 0,0 l/m² 3,6 km/h (1 Bft) N-NW 1,00 h 159 W/m² 4,1 °C 16,3 °C 6,1 km/h (2 Bft)
10.03.2025 17:00 22,5 °C 13,6 °C 39 % 52 % 999,8 hPa 0,0 l/m² 2,4 km/h (1 Bft) N-NW 0,37 h 43 W/m² 3,8 °C 13,6 °C 3,6 km/h (1 Bft)
10.03.2025 18:00 22,5 °C 9,1 °C 42 % 69 % 1000,2 hPa 0,0 l/m² 0,4 km/h (0 Bft) W-NW 0,00 h 8 W/m² 3,7 °C 9,1 °C 0,6 km/h (0 Bft)
10.03.2025 19:00 22,5 °C 5,8 °C 44 % 79 % 1000,6 hPa 0,0 l/m² 0,0 km/h (0 Bft) W-NW 0,00 h 0 W/m² 2,4 °C 5,8 °C 0,1 km/h (0 Bft)
10.03.2025 20:00 22,6 °C 4,8 °C 45 % 83 % 1000,9 hPa 0,0 l/m² 0,0 km/h (0 Bft) W 0,00 h 0 W/m² 2,2 °C 4,8 °C 0,2 km/h (0 Bft)
10.03.2025 21:00 22,6 °C 4,3 °C 45 % 83 % 1001,3 hPa 0,0 l/m² 0,3 km/h (0 Bft) SW 0,00 h 0 W/m² 1,7 °C 4,3 °C 0,6 km/h (0 Bft)
10.03.2025 22:00 22,5 °C 3,5 °C 45 % 85 % 1001,6 hPa 0,0 l/m² 0,0 km/h (0 Bft) SW 0,00 h 0 W/m² 1,1 °C 3,5 °C 0,0 km/h (0 Bft)
10.03.2025 23:00 22,4 °C 2,5 °C 46 % 88 % 1001,7 hPa 0,0 l/m² 0,1 km/h (0 Bft) SW 0,00 h 0 W/m² 0,6 °C 2,5 °C 0,5 km/h (0 Bft)
11.03.2025 00:00 22,4 °C 1,7 °C 46 % 89 % 1001,9 hPa 0,0 l/m² 0,0 km/h (0 Bft) SW 0,00 h 0 W/m² 0,0 °C 1,7 °C 0,0 km/h (0 Bft)
11.03.2025 01:00 22,3 °C 0,9 °C 46 % 91 % 1002,1 hPa 0,0 l/m² 0,0 km/h (0 Bft) SW 0,00 h 0 W/m² -0,5 °C 0,9 °C 0,1 km/h (0 Bft)
11.03.2025 02:00 22,3 °C 0,3 °C 46 % 92 % 1001,9 hPa 0,0 l/m² 0,0 km/h (0 Bft) SW 0,00 h 0 W/m² -0,9 °C 0,3 °C 0,0 km/h (0 Bft)
11.03.2025 03:00 22,3 °C 0,1 °C 46 % 92 % 1001,6 hPa 0,0 l/m² 0,0 km/h (0 Bft) SW 0,00 h 0 W/m² -1,1 °C 0,1 °C 0,1 km/h (0 Bft)
11.03.2025 04:00 22,3 °C -0,2 °C 45 % 93 % 1001,5 hPa 0,0 l/m² 0,3 km/h (0 Bft) W-SW 0,00 h 0 W/m² -1,3 °C -0,2 °C 0,6 km/h (0 Bft)
11.03.2025 05:00 22,4 °C -0,6 °C 45 % 93 % 1001,4 hPa 0,0 l/m² 0,4 km/h (0 Bft) W-SW 0,00 h 0 W/m² -1,6 °C -0,6 °C 1,0 km/h (0 Bft)
11.03.2025 06:00 22,4 °C -1,0 °C 45 % 93 % 1001,5 hPa 0,0 l/m² 0,5 km/h (0 Bft) W 0,00 h 13 W/m² -2,0 °C -1,0 °C 1,2 km/h (1 Bft)
11.03.2025 07:00 22,3 °C -0,6 °C 43 % 94 % 1001,7 hPa 0,0 l/m² 0,3 km/h (0 Bft) W 0,73 h 82 W/m² -1,5 °C -0,6 °C 0,6 km/h (0 Bft)
11.03.2025 08:00 22,5 °C 1,6 °C 43 % 94 % 1001,9 hPa 0,0 l/m² 0,1 km/h (0 Bft) W 1,00 h 144 W/m² 0,7 °C 1,6 °C 0,4 km/h (0 Bft)
11.03.2025 09:00 22,6 °C 4,6 °C 43 % 90 % 1002,0 hPa 0,0 l/m² 0,1 km/h (0 Bft) W 1,00 h 203 W/m² 3,1 °C 4,6 °C 0,5 km/h (0 Bft)
11.03.2025 10:00 22,7 °C 7,2 °C 43 % 85 % 1001,8 hPa 0,0 l/m² 0,0 km/h (0 Bft) W 1,00 h 338 W/m² 4,9 °C 7,2 °C 0,0 km/h (0 Bft)
11.03.2025 11:00 22,7 °C 10,3 °C 43 % 76 % 1001,3 hPa 0,0 l/m² 5,6 km/h (2 Bft) S-SW 1,00 h 448 W/m² 6,2 °C 10,0 °C 7,6 km/h (2 Bft)
11.03.2025 12:00 22,6 °C 11,5 °C 44 % 70 % 1000,9 hPa 0,0 l/m² 6,7 km/h (2 Bft) W-SW 1,00 h 323 W/m² 6,3 °C 10,7 °C 9,4 km/h (2 Bft)
11.03.2025 13:00 22,6 °C 12,4 °C 44 % 69 % 1000,2 hPa 0,0 l/m² 8,3 km/h (2 Bft) SW 1,00 h 341 W/m² 6,8 °C 11,2 °C 11,3 km/h (2 Bft)
11.03.2025 14:00 22,4 °C 13,0 °C 44 % 67 % 999,5 hPa 0,0 l/m² 11,4 km/h (2 Bft) S-SW 1,00 h 307 W/m² 6,9 °C 10,3 °C 14,4 km/h (3 Bft)
11.03.2025 15:00 22,4 °C 13,1 °C 44 % 68 % 999,0 hPa 0,0 l/m² 12,0 km/h (2 Bft) S-SW 1,00 h 214 W/m² 7,2 °C 10,1 °C 15,0 km/h (3 Bft)
11.03.2025 16:00 22,3 °C 12,8 °C 44 % 65 % 998,7 hPa 0,0 l/m² 9,4 km/h (2 Bft) SW 1,00 h 110 W/m² 6,4 °C 11,0 °C 12,3 km/h (2 Bft)
11.03.2025 17:00 22,1 °C 11,7 °C 43 % 67 % 998,9 hPa 0,0 l/m² 7,0 km/h (2 Bft) NW 0,20 h 29 W/m² 5,8 °C 10,9 °C 9,8 km/h (2 Bft)
11.03.2025 18:00 22,1 °C 9,1 °C 44 % 77 % 999,3 hPa 0,0 l/m² 1,8 km/h (1 Bft) SW 0,00 h 5 W/m² 5,3 °C 9,1 °C 3,0 km/h (1 Bft)
11.03.2025 19:00 22,1 °C 9,0 °C 45 % 80 % 999,7 hPa 0,0 l/m² 4,5 km/h (1 Bft) SW 0,00 h 0 W/m² 5,7 °C 8,1 °C 7,8 km/h (2 Bft)
11.03.2025 20:00 22,1 °C 7,7 °C 45 % 82 % 1000,3 hPa 0,0 l/m² 14,1 km/h (3 Bft) NW 0,00 h 0 W/m² 4,8 °C 3,0 °C 21,3 km/h (4 Bft)
11.03.2025 21:00 22,2 °C 6,1 °C 46 % 85 % 1000,5 hPa 0,0 l/m² 9,2 km/h (2 Bft) W-NW 0,00 h 0 W/m² 3,8 °C 4,0 °C 15,8 km/h (3 Bft)
11.03.2025 22:00 22,2 °C 5,6 °C 46 % 86 % 1000,5 hPa 0,0 l/m² 9,2 km/h (2 Bft) W-NW 0,00 h 0 W/m² 3,4 °C 3,2 °C 14,4 km/h (3 Bft)
11.03.2025 23:00 22,1 °C 5,5 °C 46 % 86 % 1000,6 hPa 0,0 l/m² 2,9 km/h (1 Bft) W-NW 0,00 h 0 W/m² 3,4 °C 5,4 °C 5,7 km/h (2 Bft)
12.03.2025 00:00 22,1 °C 5,4 °C 46 % 88 % 1000,5 hPa 0,0 l/m² 0,5 km/h (0 Bft) W-NW 0,00 h 0 W/m² 3,5 °C 5,4 °C 1,5 km/h (1 Bft)
12.03.2025 01:00 22,1 °C 5,1 °C 46 % 89 % 1000,3 hPa 0,0 l/m² 0,1 km/h (0 Bft) W-NW 0,00 h 0 W/m² 3,5 °C 5,1 °C 0,3 km/h (0 Bft)
12.03.2025 02:00 22,1 °C 5,2 °C 46 % 89 % 1000,0 hPa 0,0 l/m² 0,0 km/h (0 Bft) W-NW 0,00 h 0 W/m² 3,6 °C 5,2 °C 0,0 km/h (0 Bft)
12.03.2025 03:00 22,1 °C 5,1 °C 46 % 90 % 999,6 hPa 0,0 l/m² 0,0 km/h (0 Bft) W-NW 0,00 h 0 W/m² 3,5 °C 5,1 °C 0,0 km/h (0 Bft)
12.03.2025 04:00 22,1 °C 5,0 °C 45 % 91 % 999,8 hPa 0,0 l/m² 0,4 km/h (0 Bft) W-NW 0,00 h 0 W/m² 3,6 °C 5,0 °C 0,8 km/h (0 Bft)
12.03.2025 05:00 22,1 °C 4,9 °C 46 % 91 % 999,8 hPa 0,4 l/m² 1,9 km/h (1 Bft) S-SW 0,00 h 0 W/m² 3,5 °C 4,8 °C 3,7 km/h (1 Bft)
12.03.2025 06:00 22,1 °C 4,5 °C 46 % 89 % 999,9 hPa 0,0 l/m² 0,3 km/h (0 Bft) W-NW 0,00 h 0 W/m² 2,8 °C 4,5 °C 0,5 km/h (0 Bft)
12.03.2025 07:00 21,9 °C 4,4 °C 44 % 91 % 1000,1 hPa 0,0 l/m² 0,0 km/h (0 Bft) W-NW 0,00 h 14 W/m² 3,0 °C 4,4 °C 0,0 km/h (0 Bft)
12.03.2025 08:00 21,9 °C 4,9 °C 45 % 91 % 1000,1 hPa 0,0 l/m² 0,1 km/h (0 Bft) W-NW 0,00 h 38 W/m² 3,5 °C 4,9 °C 0,4 km/h (0 Bft)
12.03.2025 09:00 21,9 °C 5,4 °C 45 % 85 % 1000,2 hPa 0,0 l/m² 2,3 km/h (1 Bft) NW 0,85 h 73 W/m² 3,1 °C 5,4 °C 4,3 km/h (1 Bft)
12.03.2025 10:00 21,9 °C 5,5 °C 45 % 83 % 1000,3 hPa 0,0 l/m² 3,8 km/h (1 Bft) NW 0,98 h 72 W/m² 2,8 °C 5,4 °C 6,2 km/h (2 Bft)
12.03.2025 11:00 21,8 °C 5,9 °C 45 % 80 % 1000,4 hPa 0,0 l/m² 2,1 km/h (1 Bft) N-NO 1,00 h 134 W/m² 2,7 °C 5,9 °C 3,9 km/h (1 Bft)
12.03.2025 12:00 21,8 °C 6,6 °C 45 % 77 % 1000,1 hPa 0,0 l/m² 2,3 km/h (1 Bft) NO 1,00 h 215 W/m² 2,9 °C 6,6 °C 4,3 km/h (1 Bft)
12.03.2025 13:00 21,9 °C 7,0 °C 45 % 76 % 999,6 hPa 0,0 l/m² 1,8 km/h (1 Bft) O-NO 1,00 h 180 W/m² 3,0 °C 6,9 °C 3,4 km/h (1 Bft)
12.03.2025 14:00 21,9 °C 6,9 °C 45 % 77 % 999,2 hPa 0,0 l/m² 3,7 km/h (1 Bft) O 1,00 h 123 W/m² 3,1 °C 6,8 °C 5,6 km/h (2 Bft)
12.03.2025 15:00 21,9 °C 6,3 °C 45 % 79 % 999,1 hPa 0,0 l/m² 3,8 km/h (1 Bft) O 0,50 h 53 W/m² 3,0 °C 6,3 °C 5,3 km/h (1 Bft)
12.03.2025 16:00 21,9 °C 5,6 °C 46 % 84 % 999,2 hPa 0,0 l/m² 5,1 km/h (1 Bft) O-SO 0,00 h 24 W/m² 3,1 °C 5,5 °C 6,9 km/h (2 Bft)
12.03.2025 17:00 21,8 °C 4,9 °C 45 % 89 % 999,6 hPa 0,6 l/m² 5,2 km/h (1 Bft) SO 0,00 h 11 W/m² 3,2 °C 4,9 °C 6,8 km/h (2 Bft)
12.03.2025 18:00 21,8 °C 4,1 °C 46 % 90 % 999,7 hPa 0,2 l/m² 4,7 km/h (1 Bft) SO 0,00 h 0 W/m² 2,7 °C 4,0 °C 6,5 km/h (2 Bft)
12.03.2025 19:00 21,7 °C 3,6 °C 46 % 91 % 999,7 hPa 0,0 l/m² 2,4 km/h (1 Bft) SO 0,00 h 0 W/m² 2,3 °C 3,6 °C 4,0 km/h (1 Bft)
12.03.2025 20:00 21,7 °C 3,3 °C 46 % 92 % 999,7 hPa 0,0 l/m² 0,8 km/h (0 Bft) SO 0,00 h 0 W/m² 2,1 °C 3,3 °C 1,5 km/h (1 Bft)
12.03.2025 21:00 21,8 °C 3,1 °C 46 % 93 % 999,5 hPa 0,2 l/m² 0,6 km/h (0 Bft) SO 0,00 h 0 W/m² 2,0 °C 3,1 °C 1,6 km/h (1 Bft)
12.03.2025 22:00 21,8 °C 3,0 °C 46 % 93 % 999,6 hPa 0,0 l/m² 1,4 km/h (1 Bft) SO 0,00 h 0 W/m² 2,0 °C 3,0 °C 2,8 km/h (1 Bft)
12.03.2025 23:00 21,7 °C 2,8 °C 46 % 93 % 999,7 hPa 0,0 l/m² 1,0 km/h (0 Bft) SO 0,00 h 0 W/m² 1,8 °C 2,8 °C 2,7 km/h (1 Bft)
13.03.2025 00:00 21,7 °C 2,8 °C 46 % 93 % 999,4 hPa 0,0 l/m² 0,1 km/h (0 Bft) SO 0,00 h 0 W/m² 1,8 °C 2,8 °C 0,4 km/h (0 Bft)
13.03.2025 01:00 21,7 °C 2,4 °C 46 % 93 % 999,0 hPa 0,0 l/m² 0,0 km/h (0 Bft) SO 0,00 h 0 W/m² 1,4 °C 2,4 °C 0,1 km/h (0 Bft)
13.03.2025 02:00 21,7 °C 1,2 °C 46 % 93 % 998,5 hPa 0,0 l/m² 0,0 km/h (0 Bft) SO 0,00 h 0 W/m² 0,2 °C 1,2 °C 0,0 km/h (0 Bft)
13.03.2025 03:00 21,6 °C 0,1 °C 46 % 93 % 997,7 hPa 0,0 l/m² 0,0 km/h (0 Bft) SO 0,00 h 0 W/m² -0,9 °C 0,1 °C 0,0 km/h (0 Bft)
13.03.2025 04:00 21,7 °C -0,8 °C 46 % 94 % 997,5 hPa 0,0 l/m² 0,0 km/h (0 Bft) SO 0,00 h 0 W/m² -1,7 °C -0,8 °C 0,1 km/h (0 Bft)
13.03.2025 05:00 21,7 °C -1,6 °C 46 % 94 % 997,5 hPa 0,0 l/m² 0,0 km/h (0 Bft) SO 0,00 h 0 W/m² -2,4 °C -1,6 °C 0,0 km/h (0 Bft)
13.03.2025 06:00 21,7 °C -2,1 °C 46 % 94 % 997,8 hPa 0,0 l/m² 1,0 km/h (0 Bft) SO 0,00 h 11 W/m² -2,9 °C -2,1 °C 1,8 km/h (1 Bft)
13.03.2025 07:00 21,6 °C -0,8 °C 42 % 95 % 997,7 hPa 0,0 l/m² 2,2 km/h (1 Bft) S-SW 0,12 h 40 W/m² -1,5 °C -0,8 °C 3,5 km/h (1 Bft)
13.03.2025 08:00 21,7 °C 1,2 °C 43 % 95 % 997,6 hPa 0,0 l/m² 3,0 km/h (1 Bft) NW 1,00 h 90 W/m² 0,5 °C 1,0 °C 5,9 km/h (2 Bft)
13.03.2025 09:00 21,8 °C 3,4 °C 43 % 92 % 997,5 hPa 0,0 l/m² 6,6 km/h (2 Bft) NW 1,00 h 153 W/m² 2,1 °C 2,7 °C 11,6 km/h (2 Bft)
13.03.2025 10:00 21,9 °C 4,7 °C 43 % 84 % 997,6 hPa 0,0 l/m² 7,6 km/h (2 Bft) NW 1,00 h 223 W/m² 2,3 °C 3,5 °C 12,3 km/h (2 Bft)
13.03.2025 11:00 21,9 °C 6,3 °C 44 % 76 % 997,7 hPa 0,0 l/m² 6,0 km/h (2 Bft) NW 1,00 h 383 W/m² 2,4 °C 5,8 °C 10,2 km/h (2 Bft)
13.03.2025 12:00 22,1 °C 7,4 °C 44 % 68 % 997,7 hPa 0,0 l/m² 6,0 km/h (2 Bft) N-NW 1,00 h 305 W/m² 2,0 °C 6,8 °C 10,5 km/h (2 Bft)
13.03.2025 13:00 22,0 °C 7,2 °C 44 % 68 % 997,8 hPa 0,0 l/m² 4,9 km/h (1 Bft) W 1,00 h 224 W/m² 1,7 °C 6,7 °C 7,9 km/h (2 Bft)
13.03.2025 14:00 22,0 °C 7,5 °C 44 % 67 % 997,8 hPa 0,0 l/m² 6,4 km/h (2 Bft) W 1,00 h 192 W/m² 1,8 °C 6,5 °C 9,8 km/h (2 Bft)
13.03.2025 15:00 21,9 °C 7,6 °C 44 % 65 % 998,0 hPa 0,0 l/m² 5,0 km/h (1 Bft) W-NW 1,00 h 192 W/m² 1,5 °C 7,2 °C 8,2 km/h (2 Bft)
13.03.2025 16:00 21,9 °C 8,0 °C 44 % 64 % 998,2 hPa 0,0 l/m² 5,6 km/h (2 Bft) W 0,82 h 173 W/m² 1,6 °C 7,7 °C 8,6 km/h (2 Bft)
13.03.2025 17:00 21,8 °C 5,8 °C 44 % 74 % 998,9 hPa 0,0 l/m² 1,0 km/h (0 Bft) W 0,00 h 21 W/m² 1,4 °C 5,8 °C 2,0 km/h (1 Bft)
13.03.2025 18:00 21,7 °C 5,1 °C 45 % 79 % 999,4 hPa 0,0 l/m² 0,0 km/h (0 Bft) W 0,00 h 0 W/m² 1,8 °C 5,1 °C 0,0 km/h (0 Bft)
13.03.2025 19:00 21,6 °C 4,7 °C 46 % 83 % 1000,1 hPa 0,0 l/m² 0,1 km/h (0 Bft) W 0,00 h 0 W/m² 2,2 °C 4,7 °C 0,2 km/h (0 Bft)
13.03.2025 20:00 21,7 °C 4,5 °C 47 % 84 % 1000,7 hPa 0,0 l/m² 0,1 km/h (0 Bft) W 0,00 h 0 W/m² 2,1 °C 4,5 °C 0,2 km/h (0 Bft)
13.03.2025 21:00 21,9 °C 4,7 °C 47 % 83 % 1001,5 hPa 0,2 l/m² 4,0 km/h (1 Bft) W 0,00 h 0 W/m² 2,1 °C 4,4 °C 5,8 km/h (2 Bft)
13.03.2025 22:00 21,9 °C 4,3 °C 47 % 85 % 1002,0 hPa 0,0 l/m² 4,3 km/h (1 Bft) W 0,00 h 0 W/m² 2,0 °C 4,1 °C 7,3 km/h (2 Bft)
13.03.2025 23:00 21,8 °C 3,7 °C 47 % 88 % 1002,4 hPa 0,0 l/m² 2,5 km/h (1 Bft) W 0,00 h 0 W/m² 1,8 °C 3,7 °C 4,8 km/h (1 Bft)
14.03.2025 00:00 21,7 °C 3,5 °C 47 % 88 % 1002,7 hPa 0,0 l/m² 3,0 km/h (1 Bft) W 0,00 h 0 W/m² 1,6 °C 3,5 °C 5,8 km/h (2 Bft)
14.03.2025 01:00 21,7 °C 3,2 °C 47 % 89 % 1002,9 hPa 0,2 l/m² 1,3 km/h (1 Bft) W 0,00 h 0 W/m² 1,5 °C 3,2 °C 3,5 km/h (1 Bft)
14.03.2025 02:00 21,7 °C 3,0 °C 46 % 90 % 1003,0 hPa 0,0 l/m² 1,0 km/h (0 Bft) W-NW 0,00 h 0 W/m² 1,5 °C 3,0 °C 2,7 km/h (1 Bft)
14.03.2025 03:00 21,6 °C 2,7 °C 46 % 90 % 1003,0 hPa 0,0 l/m² 0,0 km/h (0 Bft) W-NW 0,00 h 0 W/m² 1,3 °C 2,7 °C 0,1 km/h (0 Bft)
14.03.2025 04:00 21,7 °C 2,5 °C 46 % 91 % 1003,1 hPa 0,0 l/m² 0,1 km/h (0 Bft) W-NW 0,00 h 0 W/m² 1,1 °C 2,5 °C 0,3 km/h (0 Bft)
14.03.2025 05:00 21,7 °C 2,2 °C 47 % 92 % 1003,4 hPa 0,0 l/m² 0,8 km/h (0 Bft) W-NW 0,00 h 0 W/m² 1,0 °C 2,2 °C 1,4 km/h (1 Bft)
14.03.2025 06:00 21,7 °C 2,2 °C 47 % 92 % 1004,0 hPa 0,0 l/m² 2,3 km/h (1 Bft) S-SW 0,00 h 6 W/m² 1,1 °C 2,2 °C 3,6 km/h (1 Bft)
14.03.2025 07:00 21,6 °C 2,6 °C 45 % 92 % 1004,6 hPa 0,0 l/m² 1,2 km/h (1 Bft) S-SW 0,22 h 39 W/m² 1,4 °C 2,6 °C 2,3 km/h (1 Bft)
14.03.2025 08:00 21,6 °C 3,4 °C 44 % 89 % 1005,5 hPa 0,0 l/m² 2,8 km/h (1 Bft) W 0,60 h 55 W/m² 1,7 °C 3,3 °C 5,2 km/h (1 Bft)
14.03.2025 09:00 21,5 °C 4,2 °C 44 % 85 % 1005,9 hPa 0,0 l/m² 6,3 km/h (2 Bft) N-NW 1,00 h 207 W/m² 1,8 °C 3,4 °C 10,1 km/h (2 Bft)
14.03.2025 10:00 21,6 °C 5,6 °C 45 % 80 % 1006,2 hPa 0,0 l/m² 7,9 km/h (2 Bft) N-NW 1,00 h 297 W/m² 2,4 °C 4,2 °C 11,9 km/h (2 Bft)
14.03.2025 11:00 21,7 °C 6,4 °C 46 % 76 % 1006,7 hPa 0,0 l/m² 6,2 km/h (2 Bft) N-NW 1,00 h 319 W/m² 2,5 °C 5,9 °C 9,5 km/h (2 Bft)
14.03.2025 12:00 21,7 °C 6,8 °C 47 % 71 % 1006,9 hPa 0,0 l/m² 6,2 km/h (2 Bft) NW 1,00 h 267 W/m² 2,0 °C 6,0 °C 9,7 km/h (2 Bft)
14.03.2025 13:00 21,6 °C 7,3 °C 45 % 67 % 1007,2 hPa 0,0 l/m² 7,0 km/h (2 Bft) NW 1,00 h 232 W/m² 1,7 °C 6,3 °C 10,9 km/h (2 Bft)
14.03.2025 14:00 21,6 °C 8,0 °C 44 % 63 % 1007,4 hPa 0,0 l/m² 7,3 km/h (2 Bft) NW 1,00 h 284 W/m² 1,4 °C 6,9 °C 11,1 km/h (2 Bft)
14.03.2025 15:00 21,6 °C 8,3 °C 45 % 60 % 1007,7 hPa 0,0 l/m² 7,2 km/h (2 Bft) N-NW 1,00 h 195 W/m² 1,0 °C 7,3 °C 11,1 km/h (2 Bft)
14.03.2025 16:00 21,6 °C 7,9 °C 45 % 59 % 1008,5 hPa 0,0 l/m² 7,8 km/h (2 Bft) N-NW 1,00 h 98 W/m² 0,3 °C 6,6 °C 11,7 km/h (2 Bft)
14.03.2025 17:00 21,5 °C 7,2 °C 45 % 62 % 1009,3 hPa 0,0 l/m² 5,8 km/h (2 Bft) NW 0,05 h 32 W/m² 0,4 °C 7,0 °C 8,8 km/h (2 Bft)
14.03.2025 18:00 21,4 °C 5,9 °C 45 % 67 % 1009,9 hPa 0,0 l/m² 4,3 km/h (1 Bft) N-NW 0,00 h 7 W/m² 0,3 °C 5,9 °C 6,2 km/h (2 Bft)
14.03.2025 19:00 21,4 °C 5,2 °C 45 % 66 % 1010,6 hPa 0,0 l/m² 6,3 km/h (2 Bft) N-NW 0,00 h 0 W/m² -0,7 °C 4,7 °C 8,9 km/h (2 Bft)
14.03.2025 20:00 21,4 °C 4,9 °C 45 % 68 % 1011,4 hPa 0,0 l/m² 6,5 km/h (2 Bft) N-NW 0,00 h 0 W/m² -0,5 °C 4,2 °C 9,5 km/h (2 Bft)
14.03.2025 21:00 21,5 °C 4,3 °C 45 % 72 % 1012,3 hPa 0,0 l/m² 4,1 km/h (1 Bft) NW 0,00 h 0 W/m² -0,2 °C 4,3 °C 6,4 km/h (2 Bft)
14.03.2025 22:00 21,4 °C 4,2 °C 45 % 74 % 1012,7 hPa 0,0 l/m² 8,9 km/h (2 Bft) N-NW 0,00 h 0 W/m² -0,0 °C 2,1 °C 13,2 km/h (3 Bft)
14.03.2025 23:00 21,4 °C 3,9 °C 45 % 76 % 1013,0 hPa 0,0 l/m² 9,4 km/h (2 Bft) N-NW 0,00 h 0 W/m² -0,0 °C 1,4 °C 14,7 km/h (3 Bft)
15.03.2025 00:00 21,4 °C 2,7 °C 45 % 81 % 1013,7 hPa 0,0 l/m² 3,8 km/h (1 Bft) W 0,00 h 0 W/m² -0,3 °C 2,4 °C 7,5 km/h (2 Bft)
15.03.2025 01:00 21,4 °C 1,7 °C 45 % 86 % 1014,3 hPa 0,0 l/m² 4,7 km/h (1 Bft) NW 0,00 h 0 W/m² -0,5 °C 1,5 °C 8,5 km/h (2 Bft)
15.03.2025 02:00 21,4 °C 1,5 °C 45 % 86 % 1014,5 hPa 0,0 l/m² 4,3 km/h (1 Bft) NW 0,00 h 0 W/m² -0,5 °C 1,3 °C 7,9 km/h (2 Bft)
15.03.2025 03:00 21,4 °C 1,1 °C 45 % 88 % 1014,8 hPa 0,0 l/m² 2,6 km/h (1 Bft) W-SW 0,00 h 0 W/m² -0,6 °C 1,1 °C 5,0 km/h (1 Bft)
15.03.2025 04:00 21,4 °C 1,1 °C 45 % 89 % 1015,2 hPa 0,0 l/m² 4,0 km/h (1 Bft) NW 0,00 h 0 W/m² -0,5 °C 1,1 °C 7,4 km/h (2 Bft)
15.03.2025 05:00 21,3 °C 1,1 °C 45 % 90 % 1015,8 hPa 0,0 l/m² 5,0 km/h (1 Bft) NW 0,00 h 0 W/m² -0,4 °C 1,0 °C 9,2 km/h (2 Bft)
15.03.2025 06:00 21,3 °C 1,0 °C 45 % 91 % 1016,6 hPa 0,0 l/m² 3,0 km/h (1 Bft) NW 0,00 h 5 W/m² -0,4 °C 1,0 °C 6,1 km/h (2 Bft)
15.03.2025 07:00 21,3 °C 1,4 °C 45 % 91 % 1017,4 hPa 0,0 l/m² 3,2 km/h (1 Bft) NW 0,00 h 17 W/m² 0,1 °C 1,3 °C 6,3 km/h (2 Bft)
15.03.2025 08:00 21,4 °C 2,2 °C 45 % 91 % 1018,0 hPa 0,0 l/m² 2,4 km/h (1 Bft) N-NW 0,67 h 72 W/m² 0,8 °C 2,2 °C 5,8 km/h (2 Bft)
15.03.2025 09:00 21,4 °C 4,2 °C 45 % 88 % 1018,2 hPa 0,0 l/m² 8,8 km/h (2 Bft) N 1,00 h 253 W/m² 2,4 °C 1,9 °C 16,0 km/h (3 Bft)
15.03.2025 10:00 21,3 °C 6,3 °C 45 % 82 % 1018,3 hPa 0,0 l/m² 12,2 km/h (2 Bft) N 1,00 h 457 W/m² 3,4 °C 2,3 °C 19,2 km/h (3 Bft)
15.03.2025 11:00 21,3 °C 6,7 °C 45 % 79 % 1018,5 hPa 0,0 l/m² 10,9 km/h (2 Bft) NO 1,00 h 176 W/m² 3,3 °C 3,4 °C 18,8 km/h (3 Bft)
15.03.2025 12:00 21,3 °C 7,3 °C 45 % 75 % 1018,7 hPa 0,0 l/m² 10,9 km/h (2 Bft) N-NO 1,02 h 277 W/m² 3,1 °C 4,1 °C 19,3 km/h (3 Bft)
15.03.2025 13:00 21,3 °C 8,2 °C 45 % 71 % 1018,6 hPa 0,0 l/m² 13,1 km/h (3 Bft) NO 1,00 h 337 W/m² 3,3 °C 4,0 °C 22,4 km/h (4 Bft)
15.03.2025 14:00 21,4 °C 8,7 °C 45 % 70 % 1018,4 hPa 0,0 l/m² 11,1 km/h (2 Bft) NO 1,00 h 375 W/m² 3,4 °C 5,6 °C 19,6 km/h (3 Bft)
15.03.2025 15:00 21,4 °C 8,4 °C 45 % 70 % 1018,1 hPa 0,0 l/m² 11,5 km/h (2 Bft) N-NO 1,00 h 220 W/m² 3,2 °C 5,1 °C 18,4 km/h (3 Bft)
15.03.2025 16:00 21,4 °C 8,0 °C 45 % 71 % 1018,0 hPa 0,0 l/m² 12,3 km/h (2 Bft) N 1,00 h 143 W/m² 3,1 °C 4,2 °C 19,1 km/h (3 Bft)
15.03.2025 17:00 21,4 °C 7,4 °C 45 % 72 % 1018,1 hPa 0,0 l/m² 9,6 km/h (2 Bft) N 0,53 h 57 W/m² 2,6 °C 5,0 °C 15,3 km/h (3 Bft)
15.03.2025 18:00 21,3 °C 5,7 °C 45 % 77 % 1018,5 hPa 0,0 l/m² 7,6 km/h (2 Bft) N 0,00 h 11 W/m² 2,1 °C 4,6 °C 12,9 km/h (3 Bft)
15.03.2025 19:00 21,3 °C 4,2 °C 45 % 82 % 1019,0 hPa 0,0 l/m² 8,1 km/h (2 Bft) N-NW 0,00 h 0 W/m² 1,4 °C 2,7 °C 12,8 km/h (3 Bft)
15.03.2025 20:00 21,4 °C 3,4 °C 45 % 84 % 1019,4 hPa 0,0 l/m² 9,1 km/h (2 Bft) N 0,00 h 0 W/m² 1,0 °C 1,0 °C 14,1 km/h (3 Bft)
15.03.2025 21:00 21,4 °C 2,6 °C 45 % 86 % 1019,5 hPa 0,0 l/m² 3,9 km/h (1 Bft) N 0,00 h 0 W/m² 0,5 °C 2,4 °C 7,4 km/h (2 Bft)
15.03.2025 22:00 21,3 °C 1,1 °C 45 % 88 % 1019,5 hPa 0,0 l/m² 1,0 km/h (0 Bft) W-SW 0,00 h 0 W/m² -0,6 °C 1,1 °C 2,1 km/h (1 Bft)
15.03.2025 23:00 21,3 °C 0,5 °C 45 % 90 % 1019,5 hPa 0,0 l/m² 3,2 km/h (1 Bft) W 0,00 h 0 W/m² -0,9 °C 0,5 °C 6,0 km/h (2 Bft)
16.03.2025 00:00 21,4 °C 0,2 °C 45 % 90 % 1019,6 hPa 0,0 l/m² 2,2 km/h (1 Bft) W 0,00 h 0 W/m² -1,2 °C 0,2 °C 4,4 km/h (1 Bft)
16.03.2025 01:00 21,5 °C -0,2 °C 44 % 91 % 1019,6 hPa 0,0 l/m² 2,2 km/h (1 Bft) W 0,00 h 0 W/m² -1,5 °C -0,2 °C 4,4 km/h (1 Bft)
16.03.2025 02:00 21,5 °C -0,9 °C 44 % 91 % 1019,6 hPa 0,0 l/m² 1,2 km/h (1 Bft) W 0,00 h 0 W/m² -2,2 °C -0,9 °C 3,3 km/h (1 Bft)
16.03.2025 03:00 21,6 °C -0,8 °C 44 % 92 % 1019,5 hPa 0,0 l/m² 1,7 km/h (1 Bft) W 0,00 h 0 W/m² -2,0 °C -0,8 °C 4,6 km/h (1 Bft)
16.03.2025 04:00 21,6 °C -1,2 °C 44 % 92 % 1019,3 hPa 0,0 l/m² 1,7 km/h (1 Bft) NW 0,00 h 0 W/m² -2,3 °C -1,2 °C 4,6 km/h (1 Bft)
16.03.2025 05:00 21,6 °C -1,4 °C 44 % 93 % 1019,5 hPa 0,0 l/m² 2,5 km/h (1 Bft) W-NW 0,00 h 0 W/m² -2,4 °C -1,4 °C 5,7 km/h (2 Bft)
16.03.2025 06:00 21,7 °C -2,0 °C 44 % 93 % 1020,1 hPa 0,0 l/m² 1,6 km/h (1 Bft) SW 0,00 h 16 W/m² -3,0 °C -2,0 °C 3,2 km/h (1 Bft)
16.03.2025 07:00 21,7 °C -1,0 °C 44 % 93 % 1020,5 hPa 0,0 l/m² 2,6 km/h (1 Bft) W-NW 0,77 h 93 W/m² -1,9 °C -1,0 °C 5,0 km/h (1 Bft)
16.03.2025 08:00 21,7 °C 0,8 °C 44 % 92 % 1020,9 hPa 0,0 l/m² 5,3 km/h (1 Bft) W 1,00 h 184 W/m² -0,3 °C 0,3 °C 9,9 km/h (2 Bft)
16.03.2025 09:00 21,8 °C 3,2 °C 44 % 89 % 1021,0 hPa 0,0 l/m² 5,7 km/h (2 Bft) NW 1,02 h 419 W/m² 1,7 °C 2,5 °C 10,7 km/h (2 Bft)
16.03.2025 10:00 21,8 °C 5,7 °C 44 % 82 % 1020,8 hPa 0,0 l/m² 7,0 km/h (2 Bft) N-NW 1,00 h 537 W/m² 2,8 °C 4,4 °C 12,3 km/h (2 Bft)
16.03.2025 11:00 21,8 °C 7,7 °C 44 % 74 % 1020,5 hPa 0,0 l/m² 12,0 km/h (2 Bft) N-NW 0,98 h 628 W/m² 3,3 °C 4,0 °C 18,8 km/h (3 Bft)
16.03.2025 12:00 21,8 °C 8,1 °C 44 % 68 % 1020,2 hPa 0,0 l/m² 11,0 km/h (2 Bft) NW 1,02 h 488 W/m² 2,7 °C 5,0 °C 17,0 km/h (3 Bft)
16.03.2025 13:00 21,7 °C 8,2 °C 44 % 64 % 1019,8 hPa 0,0 l/m² 10,3 km/h (2 Bft) NW 1,00 h 419 W/m² 1,7 °C 5,6 °C 16,6 km/h (3 Bft)
16.03.2025 14:00 21,7 °C 9,1 °C 44 % 55 % 1019,5 hPa 0,0 l/m² 10,9 km/h (2 Bft) NW 1,00 h 497 W/m² 0,4 °C 6,2 °C 16,9 km/h (3 Bft)
16.03.2025 15:00 21,7 °C 9,2 °C 43 % 51 % 1019,1 hPa 0,0 l/m² 10,3 km/h (2 Bft) N-NW 1,00 h 399 W/m² -0,5 °C 6,6 °C 16,0 km/h (3 Bft)
16.03.2025 16:00 21,9 °C 9,0 °C 43 % 52 % 1018,8 hPa 0,0 l/m² 8,0 km/h (2 Bft) W-NW 1,00 h 234 W/m² -0,2 °C 7,6 °C 13,5 km/h (3 Bft)
16.03.2025 17:00 21,8 °C 7,9 °C 42 % 52 % 1018,9 hPa 0,0 l/m² 6,1 km/h (2 Bft) W-NW 0,55 h 62 W/m² -1,4 °C 7,3 °C 11,0 km/h (2 Bft)
16.03.2025 18:00 21,7 °C 4,6 °C 44 % 61 % 1019,3 hPa 0,0 l/m² 1,9 km/h (1 Bft) W-NW 0,00 h 9 W/m² -2,4 °C 4,6 °C 3,0 km/h (1 Bft)
16.03.2025 19:00 21,8 °C 0,6 °C 47 % 76 % 1020,1 hPa 0,0 l/m² 0,0 km/h (0 Bft) W 0,00 h 0 W/m² -3,0 °C 0,6 °C 0,0 km/h (0 Bft)
16.03.2025 20:00 21,9 °C 0,7 °C 46 % 76 % 1020,8 hPa 0,0 l/m² 1,4 km/h (1 Bft) W-NW 0,00 h 0 W/m² -2,9 °C 0,7 °C 2,6 km/h (1 Bft)
16.03.2025 21:00 21,9 °C 0,8 °C 46 % 83 % 1021,1 hPa 0,0 l/m² 0,6 km/h (0 Bft) W-NW 0,00 h 0 W/m² -1,9 °C 0,8 °C 1,1 km/h (0 Bft)
16.03.2025 22:00 21,9 °C 1,5 °C 45 % 83 % 1021,1 hPa 0,0 l/m² 2,6 km/h (1 Bft) W 0,00 h 0 W/m² -1,1 °C 1,5 °C 4,2 km/h (1 Bft)
16.03.2025 23:00 21,8 °C 3,0 °C 46 % 82 % 1021,3 hPa 0,0 l/m² 3,1 km/h (1 Bft) W 0,00 h 0 W/m² 0,2 °C 3,0 °C 4,6 km/h (1 Bft)
Min-Datum _ 16.03.25 16.03.25 10.03.25 10.03.25 13.03.25 - 16.03.25 - - - 16.03.25 16.03.25 16.03.25
_ Min-Zeit 00:00 06:36 17:13 15:11 05:01 - 22:01 - - - 20:15 06:36 22:01
Minimum _ 21,3 °C -2,3 °C 37 % 39 % 997,4 hPa - 0,0 km/h (0 Bft) - - - -3,7 °C -2,3 °C 0,0 km/h (0 Bft)
Max-Datum _ 10.03.25 10.03.25 14.03.25 13.03.25 16.03.25 12.03.25 11.03.25 - 16.03.25 16.03.25 10.03.25 10.03.25 15.03.25
_ Max-Zeit 13:00 14:26 13:00 09:04 23:43 17:14 20:17 - 13:03 12:33 11:24 13:56 16:09
Maximum _ 23,4 °C 17,2 °C 48 % 95 % 1021,5 hPa 0,6 l/m² 20,8 km/h
NW (4 Bft)
- 0,05 h 812 W/m² 8,5 °C 17,2 °C 30,6 km/h
N (5 Bft)
Durchschnitt _ 21,9 °C 4,7 °C 45 % 81 % 1006,4 hPa #1,8 l/m² 3,7 km/h (1 Bft) W-NW #63:27 h 104 W/m² 1,5 °C 4,1 °C 6,1 km/h (2 Bft)
© 2009 Mathias Hoßbach